Harts, West Virginia
Current Conditions -  °F | °C
As of 4:51 AM on Thursday 29 Jan 2015 (Local Time) from KHTS Reporting Station
Clear Clear  
Wind Chill: 24°   Ceiling: Unl
Heat Index: 24°   Visibility: 10mi
Dew Point: 20°   Wind: 3mph
Humidity: 84%   Direction: 130°SE
Pressure: 30.08"   Gusts: NA
Location:  38.03°N, 82.13°W
Report Text: KHTS 290951Z 13003KT 10SM CLR M04/M07 A3008 RMK AO2 SLP196 T10441067
Loading
Personal Weather Stations






























Interactive Weather Map New forecast layout! Learn more

10-Day Weather Forecast

Advertisements
Track Severe Weather on mobile